createdAt,value
2023-03-27T00:02:05.030Z,74.58
2023-03-27T00:04:31.772Z,74.40
2023-03-27T00:06:59.601Z,74.11
2023-03-27T00:09:27.833Z,74.12
2023-03-27T00:11:56.316Z,74.11
2023-03-27T00:14:24.078Z,74.28
2023-03-27T00:16:51.306Z,74.18
2023-03-27T00:19:18.968Z,74.18
2023-03-27T00:21:45.461Z,74.08
2023-03-27T00:24:11.936Z,73.95
2023-03-27T00:26:40.845Z,74.15
2023-03-27T00:29:08.104Z,74.35
2023-03-27T00:31:34.728Z,74.19
2023-03-27T00:34:01.901Z,74.41
2023-03-27T00:36:28.461Z,74.30
2023-03-27T00:38:54.935Z,74.94
2023-03-27T00:41:21.620Z,74.30
2023-03-27T00:43:48.738Z,74.20
2023-03-27T00:46:15.562Z,74.22
2023-03-27T00:48:42.320Z,74.09
2023-03-27T00:51:08.823Z,74.15
2023-03-27T00:53:36.150Z,74.20
2023-03-27T00:56:03.366Z,74.52
2023-03-27T00:58:30.947Z,74.17
2023-03-27T01:00:57.884Z,74.26
2023-03-27T01:03:25.122Z,74.37
2023-03-27T01:05:51.598Z,74.25
2023-03-27T01:08:18.254Z,74.25
2023-03-27T01:10:50.953Z,74.07
2023-03-27T01:13:20.452Z,74.42
2023-03-27T01:15:53.241Z,74.43
2023-03-27T01:18:30.591Z,74.32
2023-03-27T01:21:06.245Z,74.34
2023-03-27T01:23:58.866Z,74.36
2023-03-27T01:26:41.032Z,74.30
2023-03-27T01:29:19.496Z,74.52
2023-03-27T01:32:05.317Z,74.47
2023-03-27T01:35:02.738Z,74.36
2023-03-27T01:37:33.168Z,74.51
2023-03-27T01:39:59.652Z,74.56
2023-03-27T01:42:29.566Z,74.57
2023-03-27T01:45:28.545Z,74.35
2023-03-27T01:48:21.401Z,74.43
2023-03-27T01:50:49.049Z,74.26
2023-03-27T01:53:17.147Z,75.19
2023-03-27T01:55:45.836Z,74.95
2023-03-27T01:58:14.097Z,75.10
2023-03-27T02:00:51.297Z,74.70
2023-03-27T02:03:43.859Z,74.51
2023-03-27T02:06:21.142Z,74.71
2023-03-27T02:08:53.867Z,74.55
2023-03-27T02:11:21.242Z,74.75
2023-03-27T02:13:48.874Z,74.75
2023-03-27T02:16:16.788Z,74.56
2023-03-27T02:18:47.636Z,74.71
2023-03-27T02:21:14.626Z,74.58
2023-03-27T02:23:41.239Z,74.71
2023-03-27T02:26:09.699Z,75.05
2023-03-27T02:28:41.583Z,74.79
2023-03-27T02:31:33.516Z,75.08
2023-03-27T02:34:16.717Z,75.26
2023-03-27T02:36:49.269Z,75.59
2023-03-27T02:39:28.491Z,75.62
2023-03-27T02:42:01.394Z,75.60
2023-03-27T02:44:27.854Z,75.37
2023-03-27T02:47:02.528Z,75.64
2023-03-27T02:49:31.491Z,75.25
2023-03-27T02:52:00.968Z,75.69
2023-03-27T02:54:28.945Z,75.72
2023-03-27T02:56:56.292Z,75.31
2023-03-27T02:59:24.882Z,75.42
2023-03-27T03:01:51.383Z,75.34
2023-03-27T03:04:28.534Z,75.47
2023-03-27T03:06:56.219Z,75.22
2023-03-27T03:09:22.921Z,75.63
2023-03-27T03:11:50.305Z,75.52
2023-03-27T03:14:20.983Z,75.07
2023-03-27T03:16:47.597Z,75.40
2023-03-27T03:19:14.852Z,75.34
2023-03-27T03:21:41.331Z,75.53
2023-03-27T03:24:07.850Z,75.80
2023-03-27T03:26:34.413Z,75.44
2023-03-27T03:29:01.805Z,75.90
2023-03-27T03:31:43.110Z,75.59
2023-03-27T03:34:13.661Z,75.30
2023-03-27T03:36:42.142Z,75.08
2023-03-27T03:39:08.705Z,75.05
2023-03-27T03:41:35.388Z,75.00
2023-03-27T03:44:01.863Z,75.08
2023-03-27T03:46:28.398Z,75.30
2023-03-27T03:48:54.969Z,75.53
2023-03-27T03:51:21.416Z,75.86
2023-03-27T03:53:47.886Z,75.89
2023-03-27T03:56:15.159Z,76.04
2023-03-27T03:58:41.635Z,76.31
2023-03-27T04:01:09.144Z,76.37
2023-03-27T04:03:36.254Z,76.32
2023-03-27T04:06:07.569Z,76.40
2023-03-27T04:08:34.408Z,76.32
2023-03-27T04:11:00.970Z,75.73
2023-03-27T04:13:27.437Z,75.87
2023-03-27T04:15:55.462Z,75.65
2023-03-27T04:18:24.710Z,76.31
2023-03-27T04:20:51.373Z,76.09
2023-03-27T04:23:20.809Z,75.94
2023-03-27T04:25:47.482Z,75.03
2023-03-27T04:28:16.903Z,75.11
2023-03-27T04:30:44.321Z,75.63
2023-03-27T04:33:18.377Z,75.72
2023-03-27T04:35:45.563Z,75.23
2023-03-27T04:38:12.658Z,75.47
2023-03-27T04:40:39.346Z,75.78
2023-03-27T04:43:05.806Z,75.87
2023-03-27T04:45:32.460Z,75.97
2023-03-27T04:47:59.057Z,75.29
2023-03-27T04:50:25.710Z,76.06
2023-03-27T04:52:58.402Z,76.16
2023-03-27T04:55:27.043Z,75.70
2023-03-27T04:57:53.959Z,75.68
2023-03-27T05:00:23.144Z,75.87
2023-03-27T05:02:52.768Z,76.16
2023-03-27T05:05:19.701Z,76.10
2023-03-27T05:07:46.616Z,76.86
2023-03-27T05:10:13.159Z,77.30
2023-03-27T05:12:42.636Z,76.94
2023-03-27T05:15:09.879Z,77.26
2023-03-27T05:17:45.804Z,77.41
2023-03-27T05:20:16.952Z,77.64
2023-03-27T05:22:43.565Z,77.31
2023-03-27T05:25:10.604Z,77.36
2023-03-27T05:27:37.220Z,77.74
2023-03-27T05:30:03.864Z,78.27
2023-03-27T05:32:30.377Z,78.29
2023-03-27T05:34:56.856Z,78.46
2023-03-27T05:37:24.135Z,78.45
2023-03-27T05:39:52.955Z,78.42
2023-03-27T05:42:19.552Z,79.02
2023-03-27T05:44:46.091Z,78.61
2023-03-27T05:47:14.499Z,78.89
2023-03-27T05:49:41.133Z,79.05
2023-03-27T05:52:08.529Z,78.82
2023-03-27T05:54:35.055Z,78.78
2023-03-27T05:57:01.858Z,78.17
2023-03-27T05:59:28.364Z,77.91
2023-03-27T06:01:54.784Z,77.90
2023-03-27T06:04:22.366Z,78.88
2023-03-27T06:06:48.808Z,78.55
2023-03-27T06:09:15.433Z,78.14
2023-03-27T06:11:42.849Z,79.04
2023-03-27T06:14:09.288Z,78.79
2023-03-27T06:16:36.030Z,79.28
2023-03-27T06:19:03.248Z,79.97
2023-03-27T06:21:31.746Z,79.52
2023-03-27T06:23:58.433Z,80.12
2023-03-27T06:26:25.218Z,79.71
2023-03-27T06:28:51.787Z,79.89
2023-03-27T06:31:20.068Z,79.99
2023-03-27T06:33:46.824Z,79.67
2023-03-27T06:36:13.537Z,79.39
2023-03-27T06:38:40.709Z,79.19
2023-03-27T06:41:07.171Z,79.11
2023-03-27T06:43:33.932Z,80.04
2023-03-27T06:46:00.410Z,79.94
2023-03-27T06:48:27.011Z,79.62
2023-03-27T06:50:54.035Z,79.91
2023-03-27T06:55:50.333Z,79.11
2023-03-27T06:58:18.963Z,79.11
2023-03-27T07:00:45.894Z,79.07
2023-03-27T07:03:12.534Z,79.66
2023-03-27T07:05:39.444Z,77.96
2023-03-27T07:08:22.408Z,78.05
2023-03-27T07:10:59.986Z,78.31
2023-03-27T07:13:37.417Z,78.73
2023-03-27T07:16:04.498Z,78.44
2023-03-27T07:18:31.060Z,78.93
2023-03-27T07:20:57.842Z,79.17
2023-03-27T07:23:24.557Z,80.18
2023-03-27T07:25:52.326Z,80.47
2023-03-27T07:28:19.553Z,81.00
2023-03-27T07:30:46.344Z,80.96
2023-03-27T07:33:13.094Z,81.01
2023-03-27T07:35:43.535Z,80.88
2023-03-27T07:38:10.921Z,80.14
2023-03-27T07:40:40.560Z,80.20
2023-03-27T07:43:07.522Z,79.69
2023-03-27T07:45:34.240Z,79.71
2023-03-27T07:48:11.303Z,80.11
2023-03-27T07:50:38.111Z,80.19
2023-03-27T07:53:06.436Z,80.54
2023-03-27T07:55:33.239Z,80.52
2023-03-27T07:58:02.974Z,80.20
2023-03-27T08:00:31.279Z,80.20
2023-03-27T08:03:08.158Z,80.75
2023-03-27T08:05:35.186Z,80.62
2023-03-27T08:08:01.673Z,80.73
2023-03-27T08:10:28.220Z,80.93
2023-03-27T08:12:54.698Z,81.47
2023-03-27T08:15:21.142Z,81.80
2023-03-27T08:17:47.765Z,81.05
2023-03-27T08:20:15.434Z,76.52
2023-03-27T08:22:41.967Z,73.64
2023-03-27T08:25:10.162Z,69.90
2023-03-27T08:27:37.098Z,67.32
2023-03-27T08:30:04.725Z,67.93
2023-03-27T08:32:31.904Z,69.77
2023-03-27T08:34:58.480Z,71.29
2023-03-27T08:37:24.983Z,72.43
2023-03-27T08:39:51.492Z,73.73
2023-03-27T08:42:21.934Z,73.81
2023-03-27T08:44:49.226Z,74.64
2023-03-27T08:47:19.914Z,75.11
2023-03-27T08:49:47.974Z,74.41
2023-03-27T08:52:15.688Z,74.62
2023-03-27T08:54:42.979Z,74.78
2023-03-27T08:57:19.778Z,74.25
2023-03-27T08:59:47.259Z,72.98
2023-03-27T09:02:13.691Z,73.19
2023-03-27T09:04:42.949Z,73.75
2023-03-27T09:07:21.851Z,73.90
2023-03-27T09:09:52.880Z,74.00
2023-03-27T09:12:41.078Z,74.52
2023-03-27T09:15:15.582Z,74.03
2023-03-27T09:17:59.128Z,75.49
2023-03-27T09:20:35.207Z,75.73
2023-03-27T09:23:51.910Z,75.42
2023-03-27T09:26:19.491Z,75.70
2023-03-27T09:28:50.875Z,75.90
2023-03-27T09:31:25.004Z,75.60
2023-03-27T09:33:51.733Z,76.00
2023-03-27T09:36:18.215Z,76.03
2023-03-27T09:38:46.485Z,76.15
2023-03-27T09:41:14.568Z,75.65
2023-03-27T09:44:00.565Z,74.68
2023-03-27T09:46:27.407Z,74.83
2023-03-27T09:49:01.530Z,74.57
2023-03-27T09:51:38.092Z,74.22
2023-03-27T09:54:04.713Z,73.44
2023-03-27T09:56:31.458Z,72.53
2023-03-27T09:58:59.092Z,73.74
2023-03-27T10:01:30.339Z,72.64
2023-03-27T10:03:57.366Z,72.53
2023-03-27T10:06:43.212Z,72.79
2023-03-27T10:09:19.453Z,72.38
2023-03-27T10:11:46.126Z,71.73
2023-03-27T10:14:13.637Z,71.91
2023-03-27T10:16:40.819Z,71.90
2023-03-27T10:19:09.388Z,72.24
2023-03-27T10:21:38.403Z,72.49
2023-03-27T10:24:05.854Z,72.20
2023-03-27T10:26:32.832Z,71.96
2023-03-27T10:29:01.821Z,71.37
2023-03-27T10:31:29.940Z,71.08
2023-03-27T10:33:57.284Z,72.23
2023-03-27T10:36:24.432Z,70.26
2023-03-27T10:38:53.964Z,71.24
2023-03-27T10:41:28.017Z,70.79
2023-03-27T10:43:58.226Z,71.25
2023-03-27T10:46:28.405Z,70.91
2023-03-27T10:49:17.484Z,70.78
2023-03-27T10:51:53.201Z,70.06
2023-03-27T10:54:32.451Z,68.11
2023-03-27T10:57:15.338Z,69.12
2023-03-27T10:59:50.756Z,69.68
2023-03-27T11:02:17.495Z,70.08
2023-03-27T11:04:47.769Z,69.76
2023-03-27T11:07:28.649Z,69.74
2023-03-27T11:09:57.088Z,70.56
2023-03-27T11:12:23.662Z,71.00
2023-03-27T11:15:01.361Z,70.91
2023-03-27T11:17:29.866Z,71.58
2023-03-27T11:19:58.874Z,69.01
2023-03-27T11:22:27.172Z,69.13
2023-03-27T11:24:57.518Z,68.12
2023-03-27T11:27:26.968Z,68.16
2023-03-27T11:30:05.515Z,67.82
2023-03-27T11:32:37.896Z,68.52
2023-03-27T11:35:08.888Z,67.51
2023-03-27T11:37:52.266Z,66.79
2023-03-27T11:40:39.117Z,67.88
2023-03-27T11:43:05.594Z,67.69
2023-03-27T11:45:38.494Z,68.02
2023-03-27T11:48:05.224Z,68.26
2023-03-27T11:50:41.281Z,69.34
2023-03-27T11:53:13.969Z,69.83
2023-03-27T11:55:49.722Z,69.15
2023-03-27T11:58:16.737Z,69.91
2023-03-27T12:01:07.154Z,70.21
2023-03-27T12:07:08.275Z,70.91
2023-03-27T12:09:36.822Z,72.87
2023-03-27T12:12:36.074Z,72.56
2023-03-27T12:15:12.957Z,72.32
2023-03-27T12:17:44.949Z,71.54
2023-03-27T12:20:16.046Z,71.94
2023-03-27T12:23:01.557Z,71.34
2023-03-27T12:25:28.016Z,72.05
2023-03-27T12:28:01.478Z,72.12
2023-03-27T12:30:31.526Z,71.53
2023-03-27T12:33:01.225Z,71.70
2023-03-27T12:35:28.675Z,71.13
2023-03-27T12:37:58.286Z,71.48
2023-03-27T12:40:27.259Z,71.79
2023-03-27T12:42:55.907Z,72.05
2023-03-27T12:45:23.744Z,72.21
2023-03-27T12:48:09.852Z,72.73
2023-03-27T12:50:57.162Z,72.59
2023-03-27T12:53:26.826Z,73.19
2023-03-27T12:56:12.445Z,73.08
2023-03-27T12:58:38.988Z,73.11
2023-03-27T13:01:09.432Z,73.79
2023-03-27T13:03:59.297Z,74.37
2023-03-27T13:06:34.906Z,75.16
2023-03-27T13:09:16.877Z,74.93
2023-03-27T13:11:58.226Z,74.56
2023-03-27T13:14:31.564Z,75.01
2023-03-27T13:17:10.320Z,74.63
2023-03-27T13:19:42.929Z,74.79
2023-03-27T13:22:18.656Z,74.99
2023-03-27T13:25:04.409Z,76.54
2023-03-27T13:27:33.898Z,76.12
2023-03-27T13:30:00.599Z,76.08
2023-03-27T13:32:35.033Z,76.08
2023-03-27T13:35:05.235Z,75.70
2023-03-27T13:37:36.536Z,74.81
2023-03-27T13:40:24.775Z,74.03
2023-03-27T13:42:51.904Z,72.88
2023-03-27T13:45:25.765Z,71.94
2023-03-27T13:48:10.967Z,71.16
2023-03-27T13:51:01.417Z,70.98
2023-03-27T13:53:37.449Z,71.34
2023-03-27T13:56:10.384Z,70.96
2023-03-27T13:58:42.992Z,72.40
2023-03-27T14:01:09.544Z,71.47
2023-03-27T14:03:45.967Z,72.02
2023-03-27T14:06:17.649Z,71.63
2023-03-27T14:09:08.145Z,69.08
2023-03-27T14:11:38.005Z,70.01
2023-03-27T14:14:23.016Z,70.10
2023-03-27T14:17:08.414Z,67.44
2023-03-27T14:19:53.838Z,67.26
2023-03-27T14:22:34.512Z,66.78
2023-03-27T14:25:02.783Z,66.83
2023-03-27T14:27:29.365Z,67.07
2023-03-27T14:30:07.448Z,68.00
2023-03-27T14:32:34.044Z,68.17
2023-03-27T14:35:04.788Z,68.20
2023-03-27T14:37:38.566Z,67.13
2023-03-27T14:40:23.122Z,68.00
2023-03-27T14:42:50.850Z,67.52
2023-03-27T14:45:20.528Z,67.70
2023-03-27T14:47:51.590Z,68.08
2023-03-27T14:50:18.183Z,67.85
2023-03-27T14:52:45.917Z,67.88
2023-03-27T14:55:13.728Z,67.65
2023-03-27T14:57:41.398Z,69.08
2023-03-27T15:00:08.245Z,69.52
2023-03-27T15:02:35.244Z,70.12
2023-03-27T15:05:04.652Z,70.55
2023-03-27T15:07:34.778Z,71.16
2023-03-27T15:10:07.486Z,70.80
2023-03-27T15:12:34.156Z,71.47
2023-03-27T15:15:00.801Z,71.38
2023-03-27T15:17:28.168Z,71.40
2023-03-27T15:19:55.859Z,70.60
2023-03-27T15:22:29.902Z,68.44
2023-03-27T15:24:56.933Z,68.77
2023-03-27T15:27:43.737Z,68.58
2023-03-27T15:30:30.404Z,67.28
2023-03-27T15:33:02.010Z,67.50
2023-03-27T15:35:31.310Z,67.86
2023-03-27T15:37:58.140Z,67.53
2023-03-27T15:40:40.341Z,66.79
2023-03-27T15:43:08.911Z,65.23
2023-03-27T15:45:36.901Z,66.13
2023-03-27T15:48:05.682Z,66.03
2023-03-27T15:50:32.749Z,65.86
2023-03-27T15:53:01.536Z,65.97
2023-03-27T15:55:31.250Z,66.13
2023-03-27T15:57:58.086Z,66.56
2023-03-27T16:00:25.860Z,65.84
2023-03-27T16:02:53.586Z,65.76
2023-03-27T16:05:20.436Z,66.89
2023-03-27T16:07:47.428Z,67.36
2023-03-27T16:10:15.404Z,66.63
2023-03-27T16:12:49.033Z,65.25
2023-03-27T16:15:28.679Z,64.23
2023-03-27T16:17:55.534Z,63.95
2023-03-27T16:20:30.278Z,63.46
2023-03-27T16:22:57.452Z,62.54
2023-03-27T16:25:23.875Z,61.17
2023-03-27T16:27:58.624Z,62.60
2023-03-27T16:30:32.479Z,61.99
2023-03-27T16:32:59.866Z,61.76
2023-03-27T16:35:26.905Z,61.89
2023-03-27T16:37:53.864Z,62.29
2023-03-27T16:40:20.501Z,62.65
2023-03-27T16:42:47.206Z,62.96
2023-03-27T16:45:13.729Z,63.10
2023-03-27T16:47:41.807Z,63.93
2023-03-27T16:50:11.314Z,63.85
2023-03-27T16:52:38.672Z,62.99
2023-03-27T16:55:07.221Z,63.21
2023-03-27T16:57:34.036Z,63.12
2023-03-27T17:00:00.456Z,63.31
2023-03-27T17:02:27.613Z,61.85
2023-03-27T17:04:54.187Z,63.12
2023-03-27T17:07:21.167Z,62.55
2023-03-27T17:09:47.637Z,61.90
2023-03-27T17:12:14.073Z,62.31
2023-03-27T17:14:40.572Z,61.88
2023-03-27T17:17:07.051Z,62.05
2023-03-27T17:19:33.657Z,62.68
2023-03-27T17:22:00.281Z,63.07
2023-03-27T17:24:26.739Z,63.04
2023-03-27T17:26:53.726Z,63.46
2023-03-27T17:29:20.372Z,63.02
2023-03-27T17:31:47.003Z,62.64
2023-03-27T17:34:13.745Z,62.46
2023-03-27T17:36:47.233Z,62.38
2023-03-27T17:39:19.023Z,62.42
2023-03-27T17:41:45.589Z,62.42
2023-03-27T17:44:12.159Z,62.35
2023-03-27T17:46:38.605Z,63.12
2023-03-27T17:49:05.104Z,62.61
2023-03-27T17:51:31.624Z,62.27
2023-03-27T17:53:58.547Z,62.72
2023-03-27T17:56:24.987Z,62.59
2023-03-27T17:58:51.478Z,62.17
2023-03-27T18:01:18.621Z,63.19
2023-03-27T18:03:45.400Z,63.18
2023-03-27T18:06:12.187Z,63.78
2023-03-27T18:08:38.841Z,63.65
2023-03-27T18:11:09.191Z,64.16
2023-03-27T18:13:35.939Z,64.17
2023-03-27T18:16:04.436Z,64.55
2023-03-27T18:18:33.043Z,64.41
2023-03-27T18:20:59.556Z,64.66
2023-03-27T18:23:27.180Z,64.35
2023-03-27T18:25:53.729Z,63.85
2023-03-27T18:28:20.407Z,62.90
2023-03-27T18:30:47.520Z,63.93
2023-03-27T18:33:14.105Z,64.11
2023-03-27T18:35:42.861Z,64.99
2023-03-27T18:38:11.726Z,65.08
2023-03-27T18:40:38.186Z,65.13
2023-03-27T18:43:04.670Z,65.29
2023-03-27T18:45:31.230Z,65.03
2023-03-27T18:47:57.743Z,65.42
2023-03-27T18:50:24.675Z,65.06
2023-03-27T18:52:51.189Z,63.87
2023-03-27T18:55:17.949Z,64.05
2023-03-27T18:57:45.343Z,63.49
2023-03-27T19:00:18.308Z,64.26
2023-03-27T19:02:45.321Z,64.89
2023-03-27T19:05:11.938Z,65.00
2023-03-27T19:07:44.462Z,65.33
2023-03-27T19:10:12.036Z,65.40
2023-03-27T19:12:38.512Z,65.75
2023-03-27T19:15:17.281Z,66.36
2023-03-27T19:17:46.191Z,66.61
2023-03-27T19:20:14.019Z,66.48
2023-03-27T19:22:40.733Z,66.42
2023-03-27T19:25:07.672Z,66.49
2023-03-27T19:27:39.076Z,66.58
2023-03-27T19:30:07.322Z,66.72
2023-03-27T19:32:34.148Z,66.75
2023-03-27T19:35:00.824Z,66.97
2023-03-27T19:37:27.394Z,66.92
2023-03-27T19:39:53.967Z,66.54
2023-03-27T19:42:20.498Z,66.46
2023-03-27T19:44:46.981Z,66.53
2023-03-27T19:47:13.694Z,66.78
2023-03-27T19:49:41.240Z,67.66
2023-03-27T19:52:09.279Z,67.39
2023-03-27T19:54:35.985Z,67.53
2023-03-27T19:57:02.552Z,67.62
2023-03-27T19:59:31.083Z,68.07
2023-03-27T20:01:58.042Z,67.25
2023-03-27T20:04:24.716Z,67.39
2023-03-27T20:06:51.367Z,67.00
2023-03-27T20:09:19.123Z,67.33
2023-03-27T20:11:46.711Z,67.24
2023-03-27T20:14:13.384Z,67.33
2023-03-27T20:16:39.891Z,66.20
2023-03-27T20:19:06.425Z,66.72
2023-03-27T20:21:39.731Z,67.40
2023-03-27T20:27:46.628Z,66.94
2023-03-27T20:30:14.694Z,66.48
2023-03-27T20:32:41.625Z,66.03
2023-03-27T20:35:20.685Z,66.28
2023-03-27T20:37:50.506Z,65.61
2023-03-27T20:40:17.853Z,65.12
2023-03-27T20:42:47.162Z,65.41
2023-03-27T20:45:19.328Z,65.41
2023-03-27T20:47:47.348Z,64.23
2023-03-27T20:50:14.484Z,64.84
2023-03-27T20:52:41.798Z,64.69
2023-03-27T20:55:08.886Z,64.87
2023-03-27T20:57:36.402Z,63.64
2023-03-27T21:00:07.222Z,63.20
2023-03-27T21:02:34.567Z,63.99
2023-03-27T21:05:02.868Z,64.26
2023-03-27T21:07:34.246Z,64.11
2023-03-27T21:10:01.034Z,64.71
2023-03-27T21:12:27.550Z,64.31
2023-03-27T21:14:54.145Z,63.80
2023-03-27T21:17:20.713Z,63.83
2023-03-27T21:23:15.675Z,63.91
2023-03-27T21:25:42.420Z,64.49
2023-03-27T21:28:10.768Z,64.28
2023-03-27T21:30:46.951Z,64.97
2023-03-27T21:33:18.629Z,64.75
2023-03-27T21:35:46.146Z,64.77
2023-03-27T21:38:13.045Z,63.75
2023-03-27T21:40:39.656Z,63.71
2023-03-27T21:43:06.929Z,63.94
2023-03-27T21:45:33.432Z,63.41
2023-03-27T21:47:59.959Z,63.06
2023-03-27T21:50:26.435Z,63.08
2023-03-27T21:52:52.920Z,63.63
2023-03-27T21:55:19.373Z,63.33
2023-03-27T21:57:46.131Z,63.00
2023-03-27T22:00:14.522Z,63.36
2023-03-27T22:02:41.411Z,63.13
2023-03-27T22:05:08.030Z,62.72
2023-03-27T22:07:34.484Z,63.00
2023-03-27T22:10:01.418Z,62.74
2023-03-27T22:12:27.909Z,63.19
2023-03-27T22:14:54.344Z,62.34
2023-03-27T22:17:20.927Z,62.59
2023-03-27T22:19:47.389Z,62.81
2023-03-27T22:22:13.913Z,63.08
2023-03-27T22:24:40.471Z,63.31
2023-03-27T22:27:06.922Z,63.44
2023-03-27T22:29:33.872Z,63.46
2023-03-27T22:32:00.459Z,64.23
2023-03-27T22:34:27.226Z,64.21
2023-03-27T22:36:53.747Z,64.73
2023-03-27T22:39:20.381Z,64.56
2023-03-27T22:41:46.837Z,64.32
2023-03-27T22:44:13.394Z,64.30
2023-03-27T22:46:41.071Z,64.65
2023-03-27T22:49:07.667Z,64.42
2023-03-27T22:51:34.175Z,64.77
2023-03-27T22:54:00.663Z,64.78
2023-03-27T22:56:27.204Z,64.94
2023-03-27T22:58:53.675Z,64.69
2023-03-27T23:01:20.438Z,64.77
2023-03-27T23:03:47.348Z,65.04
2023-03-27T23:06:21.279Z,64.94
2023-03-27T23:08:48.261Z,65.04
2023-03-27T23:11:15.011Z,65.11
2023-03-27T23:13:41.535Z,64.86
2023-03-27T23:16:08.479Z,64.40
2023-03-27T23:18:35.052Z,64.59
2023-03-27T23:21:02.523Z,64.57
2023-03-27T23:23:29.480Z,64.63
2023-03-27T23:25:55.956Z,65.23
2023-03-27T23:28:22.568Z,64.70
2023-03-27T23:30:55.664Z,64.86
2023-03-27T23:33:25.367Z,65.06
2023-03-27T23:36:00.888Z,65.67
2023-03-27T23:38:27.717Z,65.63
2023-03-27T23:40:57.432Z,65.57
2023-03-27T23:43:24.300Z,65.48
2023-03-27T23:45:51.247Z,65.42
2023-03-27T23:48:17.999Z,65.71
2023-03-27T23:50:44.863Z,64.97
2023-03-27T23:53:11.526Z,64.91
2023-03-27T23:55:38.202Z,64.98
2023-03-27T23:58:04.886Z,65.53
